To NAV CANADA Home Page Login to a new session Search on AWWS site Feedback and Comments Disclaimer Vers la page française équivalente Tips FAQ What's new on the site To the Forecasts and Observations / NOTAM section To "File a Flight Plan" website Publications and other links Update of the User's profile FIC Telephone Numbers My Weather Data Folder Route Weather Data Regional Weather Data Local Weather Data To the Forecasts and Observations / NOTAM section
Request Generated 06/26/2017 at 03:27:54 UTC . Weather information available at that time is displayed.

METAR/TAF

MAYO/YT    

METAR CYMA 260300Z 24003KT 200V280 20SM SCT045TCU BKN085 17/08 A2982
RMK TCU3AC4 SLP113 DENSITY ALT 2500FT=
METAR CYMA 260200Z 23007KT 20SM SCT040TCU BKN080 18/09 A2983 RMK
TCU3AC4 SLP114 DENSITY ALT 2600FT=
METAR CYMA 260100Z 21007KT 190V290 20SM SCT040TCU BKN080 18/09 A2984
RMK TCU4AC3 SLP118 DENSITY ALT 2500FT=

TAF CYMA 252338Z 2600/2612 VRB03KT P6SM BKN050 BKN080 TEMPO 2600/2612
P6SM -SHRA
RMK NXT FCST BY 260600Z=
Your time UTC time
Weather data provided by Environment Canada and NAV CANADA